Gary Chicago International Airport
KGYY : now visible

Airfield :











YOU CAN JOIN US ON...

 
LOGIN :

Register | Disclaimer

   EN    FR    IT 

 









Legend :    VFR   Marginal VFR   IFR   Intensive IFR   Very Intensive IFR
Visi :
Ceiling :
>= 8 km
>= 3000ft
5 to 8 km
1000 to 3000 ft
1500m to 5 km
500 to 1000 ft
800 to 1500m
200 to 500 ft
< 800m
< 200 ft
Symbols :   Thunderstorms  Fog  Heavy snow  Heavy precipitations  Wind > 20 kt






- Airport Elevation : 591 ft
- IATA code : GYY


KGYY - Gary Chicago International

CURRENT METAR :
  • 291345Z 00000KT 10SM SCT110 16/ A2997

EXPIRED METARs :
  • 291245Z VRB04KT 15SM BKN110 15/ A2996
  • 291145Z 00000KT 15SM BKN100 15/ A2995 RMK RAE08

TAF KGYY
Valid from the 29 at 13:00 until the 30 at 12:00 UTC


291325Z 2913/3012 25008KT P6SM FEW100 SCT250
TEMPO 2915/2917 BKN030
FM291700 02009KT P6SM SCT050
FM300100 33008KT P6SM SCT050
KZAU FIR / North America



MET'MAP, your aeronautical weather chart ! - Copyright ORBIFLY December 2007 - Disclaimer

ORBIFLY MET'MAP TEAM :

Programming & Development : Alexandra Zaïnal
Concept & original design : Baudouin d'Aumeries
Assistance for programming : Marc-Olivier Méhu
Technical & hardware support : Manuel Goepfert

Contact : metmap@orbifly.com




SOURCES & CREDITS :

   NOAA       Earth
Advisory